sensor_id;sensor_type;location;lat;lon;timestamp;temperature;humidity
78733;DHT22;68056;52.530;5.454;2023-06-26T00:00:14;23.00;61.80
78733;DHT22;68056;52.530;5.454;2023-06-26T00:02:40;23.00;61.90
78733;DHT22;68056;52.530;5.454;2023-06-26T00:05:06;23.00;61.90
78733;DHT22;68056;52.530;5.454;2023-06-26T00:07:32;23.00;61.90
78733;DHT22;68056;52.530;5.454;2023-06-26T00:09:59;23.00;61.80
78733;DHT22;68056;52.530;5.454;2023-06-26T00:12:26;23.00;61.70
78733;DHT22;68056;52.530;5.454;2023-06-26T00:14:52;23.00;61.60
78733;DHT22;68056;52.530;5.454;2023-06-26T00:17:18;23.00;61.60
78733;DHT22;68056;52.530;5.454;2023-06-26T00:19:43;23.00;61.60
78733;DHT22;68056;52.530;5.454;2023-06-26T00:22:09;23.00;61.40
78733;DHT22;68056;52.530;5.454;2023-06-26T00:24:34;23.00;61.40
78733;DHT22;68056;52.530;5.454;2023-06-26T00:27:00;22.90;61.40
78733;DHT22;68056;52.530;5.454;2023-06-26T00:29:26;22.90;61.50
78733;DHT22;68056;52.530;5.454;2023-06-26T00:31:51;22.90;61.50
78733;DHT22;68056;52.530;5.454;2023-06-26T00:34:17;22.90;61.50
78733;DHT22;68056;52.530;5.454;2023-06-26T00:36:43;22.80;61.50
78733;DHT22;68056;52.530;5.454;2023-06-26T00:39:09;22.90;61.40
78733;DHT22;68056;52.530;5.454;2023-06-26T00:41:36;22.90;61.40
78733;DHT22;68056;52.530;5.454;2023-06-26T00:44:02;22.90;61.30
78733;DHT22;68056;52.530;5.454;2023-06-26T00:46:27;22.90;61.20
78733;DHT22;68056;52.530;5.454;2023-06-26T00:48:54;22.90;61.10
78733;DHT22;68056;52.530;5.454;2023-06-26T00:51:20;22.90;61.00
78733;DHT22;68056;52.530;5.454;2023-06-26T00:53:46;23.00;60.90
78733;DHT22;68056;52.530;5.454;2023-06-26T00:56:12;23.00;60.80
78733;DHT22;68056;52.530;5.454;2023-06-26T00:58:37;23.00;60.70
78733;DHT22;68056;52.530;5.454;2023-06-26T01:01:03;23.00;60.70
78733;DHT22;68056;52.530;5.454;2023-06-26T01:03:31;23.10;60.60
78733;DHT22;68056;52.530;5.454;2023-06-26T01:05:58;23.10;60.60
78733;DHT22;68056;52.530;5.454;2023-06-26T01:08:24;23.10;60.60
78733;DHT22;68056;52.530;5.454;2023-06-26T01:10:51;23.10;60.50
78733;DHT22;68056;52.530;5.454;2023-06-26T01:13:17;23.00;60.70
78733;DHT22;68056;52.530;5.454;2023-06-26T01:15:43;23.00;60.70
78733;DHT22;68056;52.530;5.454;2023-06-26T01:18:09;23.00;60.80
78733;DHT22;68056;52.530;5.454;2023-06-26T01:20:37;23.00;60.80
78733;DHT22;68056;52.530;5.454;2023-06-26T01:28:34;23.30;61.10
78733;DHT22;68056;52.530;5.454;2023-06-26T01:31:01;23.40;61.00
78733;DHT22;68056;52.530;5.454;2023-06-26T01:33:27;23.40;60.70
78733;DHT22;68056;52.530;5.454;2023-06-26T01:35:53;23.50;60.30
78733;DHT22;68056;52.530;5.454;2023-06-26T01:38:20;23.60;60.20
78733;DHT22;68056;52.530;5.454;2023-06-26T01:40:49;23.60;60.20
78733;DHT22;68056;52.530;5.454;2023-06-26T01:46:16;23.60;60.50
78733;DHT22;68056;52.530;5.454;2023-06-26T01:49:04;23.60;60.50
78733;DHT22;68056;52.530;5.454;2023-06-26T01:51:38;23.60;60.70
78733;DHT22;68056;52.530;5.454;2023-06-26T01:54:11;23.60;60.70
78733;DHT22;68056;52.530;5.454;2023-06-26T01:56:38;23.50;60.70
78733;DHT22;68056;52.530;5.454;2023-06-26T01:59:06;23.50;60.90
78733;DHT22;68056;52.530;5.454;2023-06-26T02:01:32;23.40;61.00
78733;DHT22;68056;52.530;5.454;2023-06-26T02:03:59;23.40;61.10
78733;DHT22;68056;52.530;5.454;2023-06-26T02:06:25;23.30;61.20
78733;DHT22;68056;52.530;5.454;2023-06-26T02:08:50;23.20;61.30
78733;DHT22;68056;52.530;5.454;2023-06-26T02:11:16;23.10;61.40
78733;DHT22;68056;52.530;5.454;2023-06-26T02:13:42;23.00;61.60
78733;DHT22;68056;52.530;5.454;2023-06-26T02:16:07;23.00;61.90
78733;DHT22;68056;52.530;5.454;2023-06-26T02:18:33;22.90;62.00
78733;DHT22;68056;52.530;5.454;2023-06-26T02:20:58;22.80;62.10
78733;DHT22;68056;52.530;5.454;2023-06-26T02:23:24;22.80;62.20
78733;DHT22;68056;52.530;5.454;2023-06-26T02:25:50;22.80;62.40
78733;DHT22;68056;52.530;5.454;2023-06-26T02:28:15;22.70;62.50
78733;DHT22;68056;52.530;5.454;2023-06-26T02:30:41;22.60;62.60
78733;DHT22;68056;52.530;5.454;2023-06-26T02:33:06;22.50;62.90
78733;DHT22;68056;52.530;5.454;2023-06-26T02:35:32;22.50;63.20
78733;DHT22;68056;52.530;5.454;2023-06-26T02:37:58;22.40;63.40
78733;DHT22;68056;52.530;5.454;2023-06-26T02:40:26;22.30;63.70
78733;DHT22;68056;52.530;5.454;2023-06-26T02:42:51;22.20;63.70
78733;DHT22;68056;52.530;5.454;2023-06-26T02:45:17;22.20;63.80
78733;DHT22;68056;52.530;5.454;2023-06-26T02:47:42;22.10;63.90
78733;DHT22;68056;52.530;5.454;2023-06-26T02:50:08;22.00;64.00
78733;DHT22;68056;52.530;5.454;2023-06-26T02:52:34;21.90;64.20
78733;DHT22;68056;52.530;5.454;2023-06-26T02:55:00;21.90;64.20
78733;DHT22;68056;52.530;5.454;2023-06-26T02:57:25;21.90;64.50
78733;DHT22;68056;52.530;5.454;2023-06-26T02:59:51;21.70;64.60
78733;DHT22;68056;52.530;5.454;2023-06-26T03:02:16;21.70;64.60
78733;DHT22;68056;52.530;5.454;2023-06-26T03:04:42;21.70;64.70
78733;DHT22;68056;52.530;5.454;2023-06-26T03:07:08;21.70;64.80
78733;DHT22;68056;52.530;5.454;2023-06-26T03:09:34;21.70;65.00
78733;DHT22;68056;52.530;5.454;2023-06-26T03:11:59;21.70;65.00
78733;DHT22;68056;52.530;5.454;2023-06-26T03:14:25;21.60;65.20
78733;DHT22;68056;52.530;5.454;2023-06-26T03:16:52;21.50;65.30
78733;DHT22;68056;52.530;5.454;2023-06-26T03:19:18;21.50;65.50
78733;DHT22;68056;52.530;5.454;2023-06-26T03:21:44;21.50;65.50
78733;DHT22;68056;52.530;5.454;2023-06-26T03:24:09;21.40;65.70
78733;DHT22;68056;52.530;5.454;2023-06-26T03:26:35;21.40;65.80
78733;DHT22;68056;52.530;5.454;2023-06-26T03:29:00;21.40;65.90
78733;DHT22;68056;52.530;5.454;2023-06-26T03:31:26;21.30;66.10
78733;DHT22;68056;52.530;5.454;2023-06-26T03:33:52;21.30;66.20
78733;DHT22;68056;52.530;5.454;2023-06-26T03:36:17;21.30;66.20
78733;DHT22;68056;52.530;5.454;2023-06-26T03:38:43;21.30;66.30
78733;DHT22;68056;52.530;5.454;2023-06-26T03:41:08;21.20;66.40
78733;DHT22;68056;52.530;5.454;2023-06-26T03:43:34;21.10;66.40
78733;DHT22;68056;52.530;5.454;2023-06-26T03:46:00;21.10;66.40
78733;DHT22;68056;52.530;5.454;2023-06-26T03:48:26;21.10;66.20
78733;DHT22;68056;52.530;5.454;2023-06-26T03:50:51;21.10;66.10
78733;DHT22;68056;52.530;5.454;2023-06-26T03:53:17;21.10;66.10
78733;DHT22;68056;52.530;5.454;2023-06-26T03:55:43;21.10;66.20
78733;DHT22;68056;52.530;5.454;2023-06-26T03:58:08;21.00;66.30
78733;DHT22;68056;52.530;5.454;2023-06-26T04:00:34;21.00;66.30
78733;DHT22;68056;52.530;5.454;2023-06-26T04:02:59;21.00;66.30
78733;DHT22;68056;52.530;5.454;2023-06-26T04:05:25;21.00;66.40
78733;DHT22;68056;52.530;5.454;2023-06-26T04:07:52;21.10;66.40
78733;DHT22;68056;52.530;5.454;2023-06-26T04:10:18;21.10;66.30
78733;DHT22;68056;52.530;5.454;2023-06-26T04:12:43;21.10;66.40
78733;DHT22;68056;52.530;5.454;2023-06-26T04:15:09;21.10;66.40
78733;DHT22;68056;52.530;5.454;2023-06-26T04:17:35;21.00;66.50
78733;DHT22;68056;52.530;5.454;2023-06-26T04:20:00;21.10;66.50
78733;DHT22;68056;52.530;5.454;2023-06-26T04:22:26;21.10;66.50
78733;DHT22;68056;52.530;5.454;2023-06-26T04:24:52;21.10;66.50
78733;DHT22;68056;52.530;5.454;2023-06-26T04:27:18;21.10;66.40
78733;DHT22;68056;52.530;5.454;2023-06-26T04:29:44;21.10;66.30
78733;DHT22;68056;52.530;5.454;2023-06-26T04:32:09;21.10;66.20
78733;DHT22;68056;52.530;5.454;2023-06-26T04:34:35;21.10;66.00
78733;DHT22;68056;52.530;5.454;2023-06-26T04:37:06;21.00;65.90
78733;DHT22;68056;52.530;5.454;2023-06-26T04:39:32;21.00;65.80
78733;DHT22;68056;52.530;5.454;2023-06-26T04:41:57;20.90;65.70
78733;DHT22;68056;52.530;5.454;2023-06-26T04:44:23;20.90;65.60
78733;DHT22;68056;52.530;5.454;2023-06-26T04:46:49;20.80;65.60
78733;DHT22;68056;52.530;5.454;2023-06-26T04:49:17;20.80;65.50
78733;DHT22;68056;52.530;5.454;2023-06-26T04:51:43;20.80;65.30
78733;DHT22;68056;52.530;5.454;2023-06-26T04:54:10;20.80;65.10
78733;DHT22;68056;52.530;5.454;2023-06-26T04:56:36;20.80;65.00
78733;DHT22;68056;52.530;5.454;2023-06-26T04:59:02;20.70;65.00
78733;DHT22;68056;52.530;5.454;2023-06-26T05:01:28;20.70;65.00
78733;DHT22;68056;52.530;5.454;2023-06-26T05:03:59;20.70;65.00
78733;DHT22;68056;52.530;5.454;2023-06-26T05:06:24;20.70;64.90
78733;DHT22;68056;52.530;5.454;2023-06-26T05:08:50;20.70;64.70
78733;DHT22;68056;52.530;5.454;2023-06-26T05:11:16;20.60;64.60
78733;DHT22;68056;52.530;5.454;2023-06-26T05:13:42;20.60;64.50
78733;DHT22;68056;52.530;5.454;2023-06-26T05:16:08;20.70;64.40
78733;DHT22;68056;52.530;5.454;2023-06-26T05:18:35;20.70;64.30
78733;DHT22;68056;52.530;5.454;2023-06-26T05:21:00;20.70;64.20
78733;DHT22;68056;52.530;5.454;2023-06-26T05:23:27;20.70;64.30
78733;DHT22;68056;52.530;5.454;2023-06-26T05:25:56;20.70;64.20
78733;DHT22;68056;52.530;5.454;2023-06-26T05:28:22;20.70;64.20
78733;DHT22;68056;52.530;5.454;2023-06-26T05:30:52;20.70;64.20
78733;DHT22;68056;52.530;5.454;2023-06-26T05:33:19;20.80;64.20
78733;DHT22;68056;52.530;5.454;2023-06-26T05:35:48;20.90;64.10
78733;DHT22;68056;52.530;5.454;2023-06-26T05:38:14;21.00;64.00
78733;DHT22;68056;52.530;5.454;2023-06-26T05:40:40;21.00;64.00
78733;DHT22;68056;52.530;5.454;2023-06-26T05:43:07;21.00;64.00
78733;DHT22;68056;52.530;5.454;2023-06-26T05:45:33;21.00;64.00
78733;DHT22;68056;52.530;5.454;2023-06-26T05:47:59;21.10;63.80
78733;DHT22;68056;52.530;5.454;2023-06-26T05:50:25;21.10;63.70
78733;DHT22;68056;52.530;5.454;2023-06-26T05:52:51;21.10;63.50
78733;DHT22;68056;52.530;5.454;2023-06-26T05:55:17;21.10;63.20
78733;DHT22;68056;52.530;5.454;2023-06-26T05:57:43;21.10;63.20
78733;DHT22;68056;52.530;5.454;2023-06-26T06:00:10;21.20;63.10
78733;DHT22;68056;52.530;5.454;2023-06-26T06:02:40;21.40;63.00
78733;DHT22;68056;52.530;5.454;2023-06-26T06:05:07;21.50;63.00
78733;DHT22;68056;52.530;5.454;2023-06-26T06:07:33;21.60;62.90
78733;DHT22;68056;52.530;5.454;2023-06-26T06:09:59;21.70;62.60
78733;DHT22;68056;52.530;5.454;2023-06-26T06:12:25;21.80;62.40
78733;DHT22;68056;52.530;5.454;2023-06-26T06:14:51;21.90;62.30
78733;DHT22;68056;52.530;5.454;2023-06-26T06:17:17;22.00;62.30
78733;DHT22;68056;52.530;5.454;2023-06-26T06:19:43;22.20;62.20
78733;DHT22;68056;52.530;5.454;2023-06-26T06:22:08;22.30;62.00
78733;DHT22;68056;52.530;5.454;2023-06-26T06:24:34;22.20;61.90
78733;DHT22;68056;52.530;5.454;2023-06-26T06:26:59;22.30;61.90
78733;DHT22;68056;52.530;5.454;2023-06-26T06:29:25;22.50;61.70
78733;DHT22;68056;52.530;5.454;2023-06-26T06:31:50;22.60;61.40
78733;DHT22;68056;52.530;5.454;2023-06-26T06:34:16;22.70;61.10
78733;DHT22;68056;52.530;5.454;2023-06-26T06:36:42;22.90;60.90
78733;DHT22;68056;52.530;5.454;2023-06-26T06:39:08;23.00;60.80
78733;DHT22;68056;52.530;5.454;2023-06-26T06:41:33;23.00;60.70
78733;DHT22;68056;52.530;5.454;2023-06-26T06:43:59;22.90;60.80
78733;DHT22;68056;52.530;5.454;2023-06-26T06:46:27;22.60;60.90
78733;DHT22;68056;52.530;5.454;2023-06-26T06:48:53;22.60;61.00
78733;DHT22;68056;52.530;5.454;2023-06-26T06:51:19;22.70;61.10
78733;DHT22;68056;52.530;5.454;2023-06-26T06:53:45;22.90;61.00
78733;DHT22;68056;52.530;5.454;2023-06-26T06:56:10;22.90;61.10
78733;DHT22;68056;52.530;5.454;2023-06-26T06:58:36;22.80;61.20
78733;DHT22;68056;52.530;5.454;2023-06-26T07:01:01;22.60;61.50
78733;DHT22;68056;52.530;5.454;2023-06-26T07:03:30;22.60;61.60
78733;DHT22;68056;52.530;5.454;2023-06-26T07:05:56;22.70;61.50
78733;DHT22;68056;52.530;5.454;2023-06-26T07:08:21;23.00;61.10
78733;DHT22;68056;52.530;5.454;2023-06-26T07:10:47;23.30;60.80
78733;DHT22;68056;52.530;5.454;2023-06-26T07:13:12;23.20;60.50
78733;DHT22;68056;52.530;5.454;2023-06-26T07:15:38;23.30;60.70
78733;DHT22;68056;52.530;5.454;2023-06-26T07:18:04;23.30;60.50
78733;DHT22;68056;52.530;5.454;2023-06-26T07:20:29;23.20;60.60
78733;DHT22;68056;52.530;5.454;2023-06-26T07:22:55;23.20;60.70
78733;DHT22;68056;52.530;5.454;2023-06-26T07:25:21;23.30;60.70
78733;DHT22;68056;52.530;5.454;2023-06-26T07:27:46;23.60;60.50
78733;DHT22;68056;52.530;5.454;2023-06-26T07:30:12;23.80;60.10
78733;DHT22;68056;52.530;5.454;2023-06-26T07:32:38;23.80;59.70
78733;DHT22;68056;52.530;5.454;2023-06-26T07:35:04;23.70;59.90
78733;DHT22;68056;52.530;5.454;2023-06-26T07:37:30;23.60;60.10
78733;DHT22;68056;52.530;5.454;2023-06-26T07:39:56;23.30;60.30
78733;DHT22;68056;52.530;5.454;2023-06-26T07:42:21;23.10;60.70
78733;DHT22;68056;52.530;5.454;2023-06-26T07:44:47;23.00;61.00
78733;DHT22;68056;52.530;5.454;2023-06-26T07:47:12;23.00;60.90
78733;DHT22;68056;52.530;5.454;2023-06-26T07:49:39;22.90;61.00
78733;DHT22;68056;52.530;5.454;2023-06-26T07:52:05;22.70;61.00
78733;DHT22;68056;52.530;5.454;2023-06-26T07:54:31;22.50;61.20
78733;DHT22;68056;52.530;5.454;2023-06-26T07:57:01;22.30;61.50
78733;DHT22;68056;52.530;5.454;2023-06-26T07:59:29;22.20;61.80
78733;DHT22;68056;52.530;5.454;2023-06-26T08:01:56;22.20;61.90
78733;DHT22;68056;52.530;5.454;2023-06-26T08:04:24;22.20;61.90
78733;DHT22;68056;52.530;5.454;2023-06-26T08:06:52;22.50;61.90
78733;DHT22;68056;52.530;5.454;2023-06-26T08:09:19;22.80;61.40
78733;DHT22;68056;52.530;5.454;2023-06-26T08:11:45;23.00;61.20
78733;DHT22;68056;52.530;5.454;2023-06-26T08:14:11;23.20;60.90
78733;DHT22;68056;52.530;5.454;2023-06-26T08:16:40;23.60;60.50
78733;DHT22;68056;52.530;5.454;2023-06-26T08:19:06;23.90;59.90
78733;DHT22;68056;52.530;5.454;2023-06-26T08:21:31;24.20;59.40
78733;DHT22;68056;52.530;5.454;2023-06-26T08:23:57;24.40;59.20
78733;DHT22;68056;52.530;5.454;2023-06-26T08:26:23;24.70;58.80
78733;DHT22;68056;52.530;5.454;2023-06-26T08:28:49;24.80;58.50
78733;DHT22;68056;52.530;5.454;2023-06-26T08:31:14;24.80;58.50
78733;DHT22;68056;52.530;5.454;2023-06-26T08:33:40;25.00;58.40
78733;DHT22;68056;52.530;5.454;2023-06-26T08:36:05;25.40;58.10
78733;DHT22;68056;52.530;5.454;2023-06-26T08:38:31;25.60;57.80
78733;DHT22;68056;52.530;5.454;2023-06-26T08:40:57;25.50;57.80
78733;DHT22;68056;52.530;5.454;2023-06-26T08:43:22;25.20;58.00
78733;DHT22;68056;52.530;5.454;2023-06-26T08:45:48;25.00;58.20
78733;DHT22;68056;52.530;5.454;2023-06-26T08:48:17;24.80;58.60
78733;DHT22;68056;52.530;5.454;2023-06-26T08:50:44;25.00;58.60
78733;DHT22;68056;52.530;5.454;2023-06-26T08:56:00;25.30;58.00
78733;DHT22;68056;52.530;5.454;2023-06-26T08:58:26;25.30;57.80
78733;DHT22;68056;52.530;5.454;2023-06-26T09:00:52;25.40;57.70
78733;DHT22;68056;52.530;5.454;2023-06-26T09:03:19;25.50;57.60
78733;DHT22;68056;52.530;5.454;2023-06-26T09:05:45;25.60;57.30
78733;DHT22;68056;52.530;5.454;2023-06-26T09:08:10;25.60;57.30
78733;DHT22;68056;52.530;5.454;2023-06-26T09:10:36;25.90;56.90
78733;DHT22;68056;52.530;5.454;2023-06-26T09:13:02;26.00;56.60
78733;DHT22;68056;52.530;5.454;2023-06-26T09:15:37;26.00;56.20
78733;DHT22;68056;52.530;5.454;2023-06-26T09:18:04;25.80;55.90
78733;DHT22;68056;52.530;5.454;2023-06-26T09:20:30;25.60;56.10
78733;DHT22;68056;52.530;5.454;2023-06-26T09:22:59;25.60;56.20
78733;DHT22;68056;52.530;5.454;2023-06-26T09:25:25;25.80;55.80
78733;DHT22;68056;52.530;5.454;2023-06-26T09:27:52;25.80;55.90
78733;DHT22;68056;52.530;5.454;2023-06-26T09:30:18;25.70;55.70
78733;DHT22;68056;52.530;5.454;2023-06-26T09:32:44;25.80;55.60
78733;DHT22;68056;52.530;5.454;2023-06-26T09:35:10;25.90;55.60
78733;DHT22;68056;52.530;5.454;2023-06-26T09:37:37;26.10;55.40
78733;DHT22;68056;52.530;5.454;2023-06-26T09:40:03;26.20;54.90
78733;DHT22;68056;52.530;5.454;2023-06-26T09:42:32;25.90;55.00
78733;DHT22;68056;52.530;5.454;2023-06-26T09:44:58;25.80;55.20
78733;DHT22;68056;52.530;5.454;2023-06-26T09:47:24;25.90;54.90
78733;DHT22;68056;52.530;5.454;2023-06-26T09:49:49;25.90;54.80
78733;DHT22;68056;52.530;5.454;2023-06-26T09:52:16;25.80;54.80
78733;DHT22;68056;52.530;5.454;2023-06-26T09:54:42;25.60;54.70
78733;DHT22;68056;52.530;5.454;2023-06-26T09:57:15;25.60;54.60
78733;DHT22;68056;52.530;5.454;2023-06-26T09:59:42;25.60;54.30
78733;DHT22;68056;52.530;5.454;2023-06-26T10:02:10;25.80;54.20
78733;DHT22;68056;52.530;5.454;2023-06-26T10:04:37;26.10;53.80
78733;DHT22;68056;52.530;5.454;2023-06-26T10:07:06;26.40;53.50
78733;DHT22;68056;52.530;5.454;2023-06-26T10:09:36;26.50;53.40
78733;DHT22;68056;52.530;5.454;2023-06-26T10:12:09;26.60;53.20
78733;DHT22;68056;52.530;5.454;2023-06-26T10:14:41;26.40;53.70
78733;DHT22;68056;52.530;5.454;2023-06-26T10:17:11;26.50;53.00
78733;DHT22;68056;52.530;5.454;2023-06-26T10:19:41;26.50;52.30
78733;DHT22;68056;52.530;5.454;2023-06-26T10:22:09;26.40;52.30
78733;DHT22;68056;52.530;5.454;2023-06-26T10:24:37;26.50;52.30
78733;DHT22;68056;52.530;5.454;2023-06-26T10:27:16;26.70;52.30
78733;DHT22;68056;52.530;5.454;2023-06-26T10:30:02;27.00;51.50
78733;DHT22;68056;52.530;5.454;2023-06-26T10:32:29;27.00;51.00
78733;DHT22;68056;52.530;5.454;2023-06-26T10:34:55;27.10;50.80
78733;DHT22;68056;52.530;5.454;2023-06-26T10:37:44;27.20;50.30
78733;DHT22;68056;52.530;5.454;2023-06-26T10:40:10;26.90;50.40
78733;DHT22;68056;52.530;5.454;2023-06-26T10:42:37;26.90;50.60
78733;DHT22;68056;52.530;5.454;2023-06-26T10:45:31;26.90;50.50
78733;DHT22;68056;52.530;5.454;2023-06-26T10:47:58;27.00;50.50
78733;DHT22;68056;52.530;5.454;2023-06-26T10:50:26;27.00;50.50
78733;DHT22;68056;52.530;5.454;2023-06-26T10:55:44;27.00;50.50
78733;DHT22;68056;52.530;5.454;2023-06-26T11:03:38;26.20;50.80
78733;DHT22;68056;52.530;5.454;2023-06-26T11:06:14;26.10;51.20
78733;DHT22;68056;52.530;5.454;2023-06-26T11:08:50;26.20;51.40
78733;DHT22;68056;52.530;5.454;2023-06-26T11:11:17;26.30;51.40
78733;DHT22;68056;52.530;5.454;2023-06-26T11:13:45;26.40;51.10
78733;DHT22;68056;52.530;5.454;2023-06-26T11:16:12;26.40;51.10
78733;DHT22;68056;52.530;5.454;2023-06-26T11:18:38;26.60;51.10
78733;DHT22;68056;52.530;5.454;2023-06-26T11:21:09;26.90;50.80
78733;DHT22;68056;52.530;5.454;2023-06-26T11:23:36;26.90;50.60
78733;DHT22;68056;52.530;5.454;2023-06-26T11:26:18;26.90;50.40
78733;DHT22;68056;52.530;5.454;2023-06-26T11:28:51;26.60;50.30
78733;DHT22;68056;52.530;5.454;2023-06-26T11:31:40;26.30;50.60
78733;DHT22;68056;52.530;5.454;2023-06-26T11:34:11;25.90;50.90
78733;DHT22;68056;52.530;5.454;2023-06-26T11:36:38;25.70;51.50
78733;DHT22;68056;52.530;5.454;2023-06-26T11:39:05;25.80;51.40
78733;DHT22;68056;52.530;5.454;2023-06-26T11:41:32;25.80;51.40
78733;DHT22;68056;52.530;5.454;2023-06-26T11:44:08;25.80;51.20
78733;DHT22;68056;52.530;5.454;2023-06-26T11:46:35;25.70;51.50
78733;DHT22;68056;52.530;5.454;2023-06-26T11:49:05;25.70;51.50
78733;DHT22;68056;52.530;5.454;2023-06-26T11:51:31;25.80;51.60
78733;DHT22;68056;52.530;5.454;2023-06-26T11:53:57;25.80;51.60
78733;DHT22;68056;52.530;5.454;2023-06-26T11:56:22;25.80;51.60
78733;DHT22;68056;52.530;5.454;2023-06-26T11:59:09;25.80;51.60
78733;DHT22;68056;52.530;5.454;2023-06-26T12:01:36;25.70;51.60
78733;DHT22;68056;52.530;5.454;2023-06-26T12:04:04;25.60;51.80
78733;DHT22;68056;52.530;5.454;2023-06-26T12:06:36;25.80;51.60
78733;DHT22;68056;52.530;5.454;2023-06-26T12:09:05;25.80;51.70
78733;DHT22;68056;52.530;5.454;2023-06-26T12:11:32;25.90;51.60
78733;DHT22;68056;52.530;5.454;2023-06-26T12:13:59;26.00;51.40
78733;DHT22;68056;52.530;5.454;2023-06-26T12:16:24;26.10;51.50
78733;DHT22;68056;52.530;5.454;2023-06-26T12:18:50;26.40;51.50
78733;DHT22;68056;52.530;5.454;2023-06-26T12:24:08;26.50;51.10
78733;DHT22;68056;52.530;5.454;2023-06-26T12:26:35;26.40;51.30
78733;DHT22;68056;52.530;5.454;2023-06-26T12:29:08;26.10;51.30
78733;DHT22;68056;52.530;5.454;2023-06-26T12:31:34;25.70;51.60
78733;DHT22;68056;52.530;5.454;2023-06-26T12:34:01;25.60;51.80
78733;DHT22;68056;52.530;5.454;2023-06-26T12:36:27;25.50;51.80
78733;DHT22;68056;52.530;5.454;2023-06-26T12:38:53;25.30;51.90
78733;DHT22;68056;52.530;5.454;2023-06-26T12:41:19;25.10;52.20
78733;DHT22;68056;52.530;5.454;2023-06-26T12:43:48;25.30;52.20
78733;DHT22;68056;52.530;5.454;2023-06-26T12:46:14;25.50;51.90
78733;DHT22;68056;52.530;5.454;2023-06-26T12:48:40;25.60;51.80
78733;DHT22;68056;52.530;5.454;2023-06-26T12:51:15;25.80;51.60
78733;DHT22;68056;52.530;5.454;2023-06-26T12:53:41;26.00;51.30
78733;DHT22;68056;52.530;5.454;2023-06-26T12:56:08;25.80;51.40
78733;DHT22;68056;52.530;5.454;2023-06-26T12:58:34;25.60;51.50
78733;DHT22;68056;52.530;5.454;2023-06-26T13:01:02;25.80;51.30
78733;DHT22;68056;52.530;5.454;2023-06-26T13:03:28;26.00;51.00
78733;DHT22;68056;52.530;5.454;2023-06-26T13:05:54;26.00;50.90
78733;DHT22;68056;52.530;5.454;2023-06-26T13:08:19;25.90;50.80
78733;DHT22;68056;52.530;5.454;2023-06-26T13:10:45;25.80;51.00
78733;DHT22;68056;52.530;5.454;2023-06-26T13:13:11;25.80;51.20
78733;DHT22;68056;52.530;5.454;2023-06-26T13:15:37;26.00;51.00
78733;DHT22;68056;52.530;5.454;2023-06-26T13:18:02;25.80;51.00
78733;DHT22;68056;52.530;5.454;2023-06-26T13:20:28;25.60;51.20
78733;DHT22;68056;52.530;5.454;2023-06-26T13:22:54;25.30;51.40
78733;DHT22;68056;52.530;5.454;2023-06-26T13:25:21;24.80;52.00
78733;DHT22;68056;52.530;5.454;2023-06-26T13:27:46;24.50;52.50
78733;DHT22;68056;52.530;5.454;2023-06-26T13:30:13;24.40;52.70
78733;DHT22;68056;52.530;5.454;2023-06-26T13:32:38;24.40;52.50
78733;DHT22;68056;52.530;5.454;2023-06-26T13:35:04;24.40;52.50
78733;DHT22;68056;52.530;5.454;2023-06-26T13:37:31;24.30;52.60
78733;DHT22;68056;52.530;5.454;2023-06-26T13:39:57;24.20;52.50
78733;DHT22;68056;52.530;5.454;2023-06-26T13:42:24;24.10;52.70
78733;DHT22;68056;52.530;5.454;2023-06-26T13:44:50;24.20;52.70
78733;DHT22;68056;52.530;5.454;2023-06-26T13:47:16;24.20;52.90
78733;DHT22;68056;52.530;5.454;2023-06-26T13:49:41;24.10;52.90
78733;DHT22;68056;52.530;5.454;2023-06-26T13:52:07;24.00;53.10
78733;DHT22;68056;52.530;5.454;2023-06-26T13:54:35;24.20;53.20
78733;DHT22;68056;52.530;5.454;2023-06-26T13:57:02;24.30;53.10
78733;DHT22;68056;52.530;5.454;2023-06-26T13:59:28;24.30;53.00
78733;DHT22;68056;52.530;5.454;2023-06-26T14:01:54;24.40;52.60
78733;DHT22;68056;52.530;5.454;2023-06-26T14:04:19;24.40;51.80
78733;DHT22;68056;52.530;5.454;2023-06-26T14:06:46;24.40;52.20
78733;DHT22;68056;52.530;5.454;2023-06-26T14:09:12;24.50;52.20
78733;DHT22;68056;52.530;5.454;2023-06-26T14:11:37;24.50;51.80
78733;DHT22;68056;52.530;5.454;2023-06-26T14:14:03;24.50;52.20
78733;DHT22;68056;52.530;5.454;2023-06-26T14:16:29;24.60;51.90
78733;DHT22;68056;52.530;5.454;2023-06-26T14:18:55;24.60;52.10
78733;DHT22;68056;52.530;5.454;2023-06-26T14:21:21;24.50;52.20
78733;DHT22;68056;52.530;5.454;2023-06-26T14:23:46;24.40;52.40
78733;DHT22;68056;52.530;5.454;2023-06-26T14:26:12;24.40;52.70
78733;DHT22;68056;52.530;5.454;2023-06-26T14:28:41;24.40;52.70
78733;DHT22;68056;52.530;5.454;2023-06-26T14:31:06;24.40;52.50
78733;DHT22;68056;52.530;5.454;2023-06-26T14:33:32;24.40;51.70
78733;DHT22;68056;52.530;5.454;2023-06-26T14:35:58;24.20;52.00
78733;DHT22;68056;52.530;5.454;2023-06-26T14:38:23;24.20;52.00
78733;DHT22;68056;52.530;5.454;2023-06-26T14:40:49;24.40;52.00
78733;DHT22;68056;52.530;5.454;2023-06-26T14:43:14;24.50;51.70
78733;DHT22;68056;52.530;5.454;2023-06-26T14:45:41;24.70;51.50
78733;DHT22;68056;52.530;5.454;2023-06-26T14:48:06;24.60;51.50
78733;DHT22;68056;52.530;5.454;2023-06-26T14:50:32;24.50;51.80
78733;DHT22;68056;52.530;5.454;2023-06-26T14:52:58;24.50;51.70
78733;DHT22;68056;52.530;5.454;2023-06-26T14:55:24;24.70;51.60
78733;DHT22;68056;52.530;5.454;2023-06-26T14:57:49;24.70;51.40
78733;DHT22;68056;52.530;5.454;2023-06-26T15:00:16;24.80;51.10
78733;DHT22;68056;52.530;5.454;2023-06-26T15:02:42;24.80;50.90
78733;DHT22;68056;52.530;5.454;2023-06-26T15:05:08;24.80;50.80
78733;DHT22;68056;52.530;5.454;2023-06-26T15:07:34;24.70;50.90
78733;DHT22;68056;52.530;5.454;2023-06-26T15:09:59;24.80;50.90
78733;DHT22;68056;52.530;5.454;2023-06-26T15:12:25;24.80;51.10
78733;DHT22;68056;52.530;5.454;2023-06-26T15:14:52;25.00;50.90
78733;DHT22;68056;52.530;5.454;2023-06-26T15:17:18;25.00;50.80
78733;DHT22;68056;52.530;5.454;2023-06-26T15:19:44;24.90;50.70
78733;DHT22;68056;52.530;5.454;2023-06-26T15:22:10;24.90;50.80
78733;DHT22;68056;52.530;5.454;2023-06-26T15:24:36;24.80;50.70
78733;DHT22;68056;52.530;5.454;2023-06-26T15:27:01;24.70;50.70
78733;DHT22;68056;52.530;5.454;2023-06-26T15:29:27;24.50;50.70
78733;DHT22;68056;52.530;5.454;2023-06-26T15:31:53;24.40;50.70
78733;DHT22;68056;52.530;5.454;2023-06-26T15:34:21;24.40;50.90
78733;DHT22;68056;52.530;5.454;2023-06-26T15:36:47;24.20;51.20
78733;DHT22;68056;52.530;5.454;2023-06-26T15:39:13;24.20;51.40
78733;DHT22;68056;52.530;5.454;2023-06-26T15:41:38;24.40;51.30
78733;DHT22;68056;52.530;5.454;2023-06-26T15:44:04;24.40;51.00
78733;DHT22;68056;52.530;5.454;2023-06-26T15:46:30;24.30;51.10
78733;DHT22;68056;52.530;5.454;2023-06-26T15:48:56;24.20;51.10